sensor_id;sensor_type;location;lat;lon;timestamp;pressure;altitude;pressure_sealevel;temperature;humidity
40998;BME280;26740;45.944;12.480;2022-07-15T00:01:42;101042.22;;;18.92;100.00
40998;BME280;26740;45.944;12.480;2022-07-15T00:04:07;101036.88;;;18.91;100.00
40998;BME280;26740;45.944;12.480;2022-07-15T00:06:33;101038.81;;;18.96;100.00
40998;BME280;26740;45.944;12.480;2022-07-15T00:08:58;101030.97;;;18.92;100.00
40998;BME280;26740;45.944;12.480;2022-07-15T00:11:24;101035.59;;;18.83;100.00
40998;BME280;26740;45.944;12.480;2022-07-15T00:13:50;101035.41;;;18.74;100.00
40998;BME280;26740;45.944;12.480;2022-07-15T00:16:15;101029.03;;;18.69;100.00
40998;BME280;26740;45.944;12.480;2022-07-15T00:18:41;101031.00;;;18.68;100.00
40998;BME280;26740;45.944;12.480;2022-07-15T00:21:07;101028.47;;;18.67;100.00
40998;BME280;26740;45.944;12.480;2022-07-15T00:23:33;101027.41;;;18.63;100.00
40998;BME280;26740;45.944;12.480;2022-07-15T00:25:58;101022.63;;;18.63;100.00
40998;BME280;26740;45.944;12.480;2022-07-15T00:28:24;101017.69;;;18.55;100.00
40998;BME280;26740;45.944;12.480;2022-07-15T00:30:50;101020.44;;;18.60;100.00
40998;BME280;26740;45.944;12.480;2022-07-15T00:33:16;101013.34;;;18.63;100.00
40998;BME280;26740;45.944;12.480;2022-07-15T00:35:41;101010.44;;;18.49;100.00
40998;BME280;26740;45.944;12.480;2022-07-15T00:38:09;101015.91;;;18.40;100.00
40998;BME280;26740;45.944;12.480;2022-07-15T00:40:46;101011.50;;;18.34;100.00
40998;BME280;26740;45.944;12.480;2022-07-15T00:43:14;101011.03;;;18.27;100.00
40998;BME280;26740;45.944;12.480;2022-07-15T00:45:43;101000.91;;;18.26;100.00
40998;BME280;26740;45.944;12.480;2022-07-15T00:48:10;100998.09;;;18.26;100.00
40998;BME280;26740;45.944;12.480;2022-07-15T00:50:36;100994.75;;;18.24;100.00
40998;BME280;26740;45.944;12.480;2022-07-15T00:53:05;100994.28;;;18.16;100.00
40998;BME280;26740;45.944;12.480;2022-07-15T00:55:37;100987.84;;;18.16;100.00
40998;BME280;26740;45.944;12.480;2022-07-15T00:58:07;100984.19;;;18.15;100.00
40998;BME280;26740;45.944;12.480;2022-07-15T01:00:34;100982.81;;;18.13;100.00
40998;BME280;26740;45.944;12.480;2022-07-15T01:03:00;100990.72;;;18.11;100.00
40998;BME280;26740;45.944;12.480;2022-07-15T01:05:27;100992.66;;;18.10;100.00
40998;BME280;26740;45.944;12.480;2022-07-15T01:07:54;100993.81;;;18.09;100.00
40998;BME280;26740;45.944;12.480;2022-07-15T01:10:21;100986.56;;;18.03;100.00
40998;BME280;26740;45.944;12.480;2022-07-15T01:12:48;100988.03;;;18.00;100.00
40998;BME280;26740;45.944;12.480;2022-07-15T01:15:15;100981.88;;;17.98;100.00
40998;BME280;26740;45.944;12.480;2022-07-15T01:17:44;100992.50;;;18.02;100.00
40998;BME280;26740;45.944;12.480;2022-07-15T01:20:10;100995.25;;;18.07;100.00
40998;BME280;26740;45.944;12.480;2022-07-15T01:22:37;100995.63;;;18.00;100.00
40998;BME280;26740;45.944;12.480;2022-07-15T01:25:04;100985.81;;;17.97;100.00
40998;BME280;26740;45.944;12.480;2022-07-15T01:27:30;100990.06;;;17.95;100.00
40998;BME280;26740;45.944;12.480;2022-07-15T01:29:59;100984.13;;;17.96;100.00
40998;BME280;26740;45.944;12.480;2022-07-15T01:32:28;100979.06;;;17.98;100.00
40998;BME280;26740;45.944;12.480;2022-07-15T01:34:53;100982.13;;;18.02;100.00
40998;BME280;26740;45.944;12.480;2022-07-15T01:37:19;100976.09;;;18.09;100.00
40998;BME280;26740;45.944;12.480;2022-07-15T01:39:44;100977.19;;;18.13;100.00
40998;BME280;26740;45.944;12.480;2022-07-15T01:42:10;100973.53;;;18.12;100.00
40998;BME280;26740;45.944;12.480;2022-07-15T01:44:36;100973.78;;;18.16;100.00
40998;BME280;26740;45.944;12.480;2022-07-15T01:47:01;100973.69;;;18.21;100.00
40998;BME280;26740;45.944;12.480;2022-07-15T01:49:27;100969.75;;;18.22;100.00
40998;BME280;26740;45.944;12.480;2022-07-15T01:51:59;100973.47;;;18.17;100.00
40998;BME280;26740;45.944;12.480;2022-07-15T01:54:27;100970.13;;;18.15;100.00
40998;BME280;26740;45.944;12.480;2022-07-15T01:56:54;100969.06;;;18.11;100.00
40998;BME280;26740;45.944;12.480;2022-07-15T01:59:21;100966.63;;;18.05;100.00
40998;BME280;26740;45.944;12.480;2022-07-15T02:01:49;100965.78;;;18.04;100.00
40998;BME280;26740;45.944;12.480;2022-07-15T02:04:15;100966.66;;;17.99;100.00
40998;BME280;26740;45.944;12.480;2022-07-15T02:06:41;100966.44;;;17.96;100.00
40998;BME280;26740;45.944;12.480;2022-07-15T02:09:08;100965.97;;;17.89;100.00
40998;BME280;26740;45.944;12.480;2022-07-15T02:11:34;100959.06;;;17.76;100.00
40998;BME280;26740;45.944;12.480;2022-07-15T02:14:01;100965.81;;;17.75;100.00
40998;BME280;26740;45.944;12.480;2022-07-15T02:16:31;100962.22;;;17.69;100.00
40998;BME280;26740;45.944;12.480;2022-07-15T02:18:57;100964.50;;;17.67;100.00
40998;BME280;26740;45.944;12.480;2022-07-15T02:21:24;100956.66;;;17.64;100.00
40998;BME280;26740;45.944;12.480;2022-07-15T02:23:52;100959.88;;;17.52;100.00
40998;BME280;26740;45.944;12.480;2022-07-15T02:26:19;100959.88;;;17.52;100.00
40998;BME280;26740;45.944;12.480;2022-07-15T02:28:45;100955.75;;;17.44;100.00
40998;BME280;26740;45.944;12.480;2022-07-15T02:31:11;100959.44;;;17.40;100.00
40998;BME280;26740;45.944;12.480;2022-07-15T02:33:40;100952.22;;;17.34;100.00
40998;BME280;26740;45.944;12.480;2022-07-15T02:36:07;100949.75;;;17.27;100.00
40998;BME280;26740;45.944;12.480;2022-07-15T02:38:32;100951.72;;;17.27;100.00
40998;BME280;26740;45.944;12.480;2022-07-15T02:40:58;100953.94;;;17.30;100.00
40998;BME280;26740;45.944;12.480;2022-07-15T02:43:24;100949.16;;;17.30;100.00
40998;BME280;26740;45.944;12.480;2022-07-15T02:45:49;100951.13;;;17.30;100.00
40998;BME280;26740;45.944;12.480;2022-07-15T02:48:15;100948.91;;;17.27;100.00
40998;BME280;26740;45.944;12.480;2022-07-15T02:50:41;100953.19;;;17.19;100.00
40998;BME280;26740;45.944;12.480;2022-07-15T02:53:07;100949.00;;;17.16;100.00
40998;BME280;26740;45.944;12.480;2022-07-15T02:55:33;100949.59;;;17.13;100.00
40998;BME280;26740;45.944;12.480;2022-07-15T02:57:59;100947.06;;;17.12;100.00
40998;BME280;26740;45.944;12.480;2022-07-15T03:00:25;100945.41;;;17.11;100.00
40998;BME280;26740;45.944;12.480;2022-07-15T03:02:51;100951.03;;;17.11;100.00
40998;BME280;26740;45.944;12.480;2022-07-15T03:05:17;100947.13;;;17.07;100.00
40998;BME280;26740;45.944;12.480;2022-07-15T03:07:43;100943.69;;;17.15;100.00
40998;BME280;26740;45.944;12.480;2022-07-15T03:10:09;100945.16;;;17.07;100.00
40998;BME280;26740;45.944;12.480;2022-07-15T03:12:36;100940.13;;;17.04;100.00
40998;BME280;26740;45.944;12.480;2022-07-15T03:15:02;100940.72;;;17.01;100.00
40998;BME280;26740;45.944;12.480;2022-07-15T03:17:29;100947.72;;;17.03;100.00
40998;BME280;26740;45.944;12.480;2022-07-15T03:19:54;100943.47;;;17.06;100.00
40998;BME280;26740;45.944;12.480;2022-07-15T03:22:24;100937.06;;;17.00;100.00
40998;BME280;26740;45.944;12.480;2022-07-15T03:24:49;100939.09;;;16.95;100.00
40998;BME280;26740;45.944;12.480;2022-07-15T03:27:16;100945.00;;;16.93;100.00
40998;BME280;26740;45.944;12.480;2022-07-15T03:29:42;100944.13;;;16.98;100.00
40998;BME280;26740;45.944;12.480;2022-07-15T03:32:08;100939.38;;;16.93;100.00
40998;BME280;26740;45.944;12.480;2022-07-15T03:34:36;100940.50;;;16.92;100.00
40998;BME280;26740;45.944;12.480;2022-07-15T03:37:03;100941.91;;;16.95;100.00
40998;BME280;26740;45.944;12.480;2022-07-15T03:39:29;100945.53;;;16.95;100.00
40998;BME280;26740;45.944;12.480;2022-07-15T03:41:54;100944.97;;;16.98;100.00
40998;BME280;26740;45.944;12.480;2022-07-15T03:44:20;100929.44;;;17.06;100.00
40998;BME280;26740;45.944;12.480;2022-07-15T03:46:46;100939.47;;;17.17;100.00
40998;BME280;26740;45.944;12.480;2022-07-15T03:49:13;100943.34;;;17.21;100.00
40998;BME280;26740;45.944;12.480;2022-07-15T03:51:39;100944.72;;;17.24;100.00
40998;BME280;26740;45.944;12.480;2022-07-15T03:54:05;100941.38;;;17.22;100.00
40998;BME280;26740;45.944;12.480;2022-07-15T03:56:33;100942.75;;;17.24;100.00
40998;BME280;26740;45.944;12.480;2022-07-15T03:58:59;100934.00;;;17.31;100.00
40998;BME280;26740;45.944;12.480;2022-07-15T04:01:25;100934.78;;;17.37;100.00
40998;BME280;26740;45.944;12.480;2022-07-15T04:03:51;100941.41;;;17.46;100.00
40998;BME280;26740;45.944;12.480;2022-07-15T04:06:18;100934.84;;;17.56;100.00
40998;BME280;26740;45.944;12.480;2022-07-15T04:08:44;100936.34;;;17.72;100.00
40998;BME280;26740;45.944;12.480;2022-07-15T04:11:10;100936.22;;;18.07;100.00
40998;BME280;26740;45.944;12.480;2022-07-15T04:13:37;100940.91;;;18.54;100.00
40998;BME280;26740;45.944;12.480;2022-07-15T04:16:03;100948.91;;;19.04;100.00
40998;BME280;26740;45.944;12.480;2022-07-15T04:18:29;100943.34;;;19.46;100.00
40998;BME280;26740;45.944;12.480;2022-07-15T04:20:55;100953.84;;;19.87;100.00
40998;BME280;26740;45.944;12.480;2022-07-15T04:23:21;100949.06;;;20.52;100.00
40998;BME280;26740;45.944;12.480;2022-07-15T04:25:46;100953.94;;;20.96;100.00
40998;BME280;26740;45.944;12.480;2022-07-15T04:28:12;100956.53;;;21.52;100.00
40998;BME280;26740;45.944;12.480;2022-07-15T04:30:37;100952.84;;;21.91;100.00
40998;BME280;26740;45.944;12.480;2022-07-15T04:33:03;100952.03;;;22.31;100.00
40998;BME280;26740;45.944;12.480;2022-07-15T04:35:29;100958.41;;;22.89;100.00
40998;BME280;26740;45.944;12.480;2022-07-15T04:37:56;100956.22;;;23.21;100.00
40998;BME280;26740;45.944;12.480;2022-07-15T04:40:21;100957.31;;;23.55;100.00
40998;BME280;26740;45.944;12.480;2022-07-15T04:42:47;100963.66;;;23.99;100.00
40998;BME280;26740;45.944;12.480;2022-07-15T04:45:12;100966.84;;;24.27;100.00
40998;BME280;26740;45.944;12.480;2022-07-15T04:47:38;100953.69;;;24.94;100.00
40998;BME280;26740;45.944;12.480;2022-07-15T04:50:05;100964.03;;;25.32;100.00
40998;BME280;26740;45.944;12.480;2022-07-15T04:52:48;100966.63;;;25.83;100.00
40998;BME280;26740;45.944;12.480;2022-07-15T04:55:15;100956.38;;;26.03;100.00
40998;BME280;26740;45.944;12.480;2022-07-15T04:57:40;100954.94;;;26.09;100.00
40998;BME280;26740;45.944;12.480;2022-07-15T05:00:08;100948.72;;;26.69;100.00
40998;BME280;26740;45.944;12.480;2022-07-15T05:02:34;100959.63;;;27.08;100.00
40998;BME280;26740;45.944;12.480;2022-07-15T05:05:00;100960.63;;;27.28;100.00
40998;BME280;26740;45.944;12.480;2022-07-15T05:07:26;100963.06;;;27.57;100.00
40998;BME280;26740;45.944;12.480;2022-07-15T05:09:51;100965.50;;;27.87;100.00
40998;BME280;26740;45.944;12.480;2022-07-15T05:12:17;100964.59;;;28.15;100.00
40998;BME280;26740;45.944;12.480;2022-07-15T05:14:43;100968.88;;;28.25;100.00
40998;BME280;26740;45.944;12.480;2022-07-15T05:17:09;100971.50;;;27.98;100.00
40998;BME280;26740;45.944;12.480;2022-07-15T05:19:34;100969.63;;;28.73;100.00
40998;BME280;26740;45.944;12.480;2022-07-15T05:22:01;100970.16;;;29.57;100.00
40998;BME280;26740;45.944;12.480;2022-07-15T05:24:26;100969.84;;;29.19;100.00
40998;BME280;26740;45.944;12.480;2022-07-15T05:26:52;100969.91;;;29.23;100.00
40998;BME280;26740;45.944;12.480;2022-07-15T05:29:18;100970.03;;;29.10;100.00
40998;BME280;26740;45.944;12.480;2022-07-15T05:31:50;100974.53;;;29.11;100.00
40998;BME280;26740;45.944;12.480;2022-07-15T05:34:16;100969.66;;;29.74;100.00
40998;BME280;26740;45.944;12.480;2022-07-15T05:36:41;100971.84;;;30.04;95.54
40998;BME280;26740;45.944;12.480;2022-07-15T05:39:07;100978.09;;;30.36;83.06
40998;BME280;26740;45.944;12.480;2022-07-15T05:41:33;100979.00;;;30.97;80.40
40998;BME280;26740;45.944;12.480;2022-07-15T05:44:00;100979.59;;;31.48;72.05
40998;BME280;26740;45.944;12.480;2022-07-15T05:46:25;100981.03;;;31.65;65.11
40998;BME280;26740;45.944;12.480;2022-07-15T05:48:51;100983.66;;;32.25;62.43
40998;BME280;26740;45.944;12.480;2022-07-15T05:51:17;100980.44;;;32.34;62.72
40998;BME280;26740;45.944;12.480;2022-07-15T05:53:43;100975.59;;;31.97;62.45
40998;BME280;26740;45.944;12.480;2022-07-15T05:56:09;100987.28;;;32.74;60.39
40998;BME280;26740;45.944;12.480;2022-07-15T05:58:36;100979.19;;;33.01;58.06
40998;BME280;26740;45.944;12.480;2022-07-15T06:01:02;100983.50;;;33.47;56.98
40998;BME280;26740;45.944;12.480;2022-07-15T06:03:28;100994.22;;;33.50;55.42
40998;BME280;26740;45.944;12.480;2022-07-15T06:05:53;100993.88;;;33.77;56.65
40998;BME280;26740;45.944;12.480;2022-07-15T06:08:19;100993.97;;;32.30;54.37
40998;BME280;26740;45.944;12.480;2022-07-15T06:10:45;100991.50;;;31.84;59.37
40998;BME280;26740;45.944;12.480;2022-07-15T06:13:11;100987.91;;;31.56;58.25
40998;BME280;26740;45.944;12.480;2022-07-15T06:15:37;100988.28;;;31.96;58.81
40998;BME280;26740;45.944;12.480;2022-07-15T06:18:02;100982.59;;;32.00;55.79
40998;BME280;26740;45.944;12.480;2022-07-15T06:20:28;100987.81;;;31.87;58.40
40998;BME280;26740;45.944;12.480;2022-07-15T06:22:54;100989.72;;;31.72;57.67
40998;BME280;26740;45.944;12.480;2022-07-15T06:25:20;100988.06;;;31.71;56.44
40998;BME280;26740;45.944;12.480;2022-07-15T06:27:46;100989.78;;;31.79;58.33
40998;BME280;26740;45.944;12.480;2022-07-15T06:30:12;100982.72;;;31.69;60.67
40998;BME280;26740;45.944;12.480;2022-07-15T06:32:39;100994.56;;;33.27;53.41
40998;BME280;26740;45.944;12.480;2022-07-15T06:35:05;100997.19;;;34.04;53.20
40998;BME280;26740;45.944;12.480;2022-07-15T06:37:32;100993.72;;;33.34;55.78
40998;BME280;26740;45.944;12.480;2022-07-15T06:39:57;101001.91;;;33.14;56.13
40998;BME280;26740;45.944;12.480;2022-07-15T06:42:23;101001.91;;;33.21;55.49
40998;BME280;26740;45.944;12.480;2022-07-15T06:44:49;100992.91;;;33.33;53.42
40998;BME280;26740;45.944;12.480;2022-07-15T06:47:15;100997.63;;;34.31;50.25
40998;BME280;26740;45.944;12.480;2022-07-15T06:49:40;100994.16;;;33.29;51.18
40998;BME280;26740;45.944;12.480;2022-07-15T06:52:06;100999.28;;;32.91;52.16
40998;BME280;26740;45.944;12.480;2022-07-15T06:54:32;101002.91;;;32.77;53.05
40998;BME280;26740;45.944;12.480;2022-07-15T06:56:58;101005.38;;;33.70;53.63
40998;BME280;26740;45.944;12.480;2022-07-15T06:59:24;101010.13;;;33.15;54.70
40998;BME280;26740;45.944;12.480;2022-07-15T07:01:51;101001.25;;;32.68;51.93
40998;BME280;26740;45.944;12.480;2022-07-15T07:04:17;101003.25;;;33.52;49.46
40998;BME280;26740;45.944;12.480;2022-07-15T07:06:43;101001.22;;;33.63;51.43
40998;BME280;26740;45.944;12.480;2022-07-15T07:09:09;101007.19;;;33.12;48.97
40998;BME280;26740;45.944;12.480;2022-07-15T07:11:35;101000.41;;;33.63;49.84
40998;BME280;26740;45.944;12.480;2022-07-15T07:14:01;101001.16;;;33.42;50.51
40998;BME280;26740;45.944;12.480;2022-07-15T07:16:27;101008.28;;;33.84;50.05
40998;BME280;26740;45.944;12.480;2022-07-15T07:18:52;101009.25;;;33.11;52.77
40998;BME280;26740;45.944;12.480;2022-07-15T07:21:19;101008.63;;;32.69;52.34
40998;BME280;26740;45.944;12.480;2022-07-15T07:23:46;100994.28;;;34.15;49.52
40998;BME280;26740;45.944;12.480;2022-07-15T07:26:13;101002.88;;;34.94;49.31
40998;BME280;26740;45.944;12.480;2022-07-15T07:28:39;101000.09;;;34.29;49.19
40998;BME280;26740;45.944;12.480;2022-07-15T07:31:06;100999.66;;;34.56;49.52
40998;BME280;26740;45.944;12.480;2022-07-15T07:33:32;101004.84;;;35.19;48.73
40998;BME280;26740;45.944;12.480;2022-07-15T07:35:58;101007.06;;;34.46;51.55
40998;BME280;26740;45.944;12.480;2022-07-15T07:38:24;101010.69;;;33.60;46.77
40998;BME280;26740;45.944;12.480;2022-07-15T07:40:50;101003.41;;;34.31;45.71
40998;BME280;26740;45.944;12.480;2022-07-15T07:43:17;101004.63;;;34.27;46.39
40998;BME280;26740;45.944;12.480;2022-07-15T07:45:45;101008.25;;;34.92;48.69
40998;BME280;26740;45.944;12.480;2022-07-15T07:48:11;101003.22;;;33.38;49.70
40998;BME280;26740;45.944;12.480;2022-07-15T07:50:37;100986.91;;;33.96;47.22
40998;BME280;26740;45.944;12.480;2022-07-15T07:53:03;100994.28;;;34.76;45.25
40998;BME280;26740;45.944;12.480;2022-07-15T07:55:29;100999.16;;;34.97;47.35
40998;BME280;26740;45.944;12.480;2022-07-15T07:57:57;100998.44;;;34.14;50.18
40998;BME280;26740;45.944;12.480;2022-07-15T08:00:25;100992.69;;;34.21;49.97
40998;BME280;26740;45.944;12.480;2022-07-15T08:02:53;100992.97;;;33.58;48.56
40998;BME280;26740;45.944;12.480;2022-07-15T08:05:18;100996.34;;;33.68;47.31
40998;BME280;26740;45.944;12.480;2022-07-15T08:07:45;100995.41;;;33.46;48.11
40998;BME280;26740;45.944;12.480;2022-07-15T08:10:11;100996.34;;;34.75;46.44
40998;BME280;26740;45.944;12.480;2022-07-15T08:12:38;100987.75;;;35.60;45.92
40998;BME280;26740;45.944;12.480;2022-07-15T08:15:09;100983.22;;;34.17;45.62
40998;BME280;26740;45.944;12.480;2022-07-15T08:17:37;100987.16;;;33.37;45.57
40998;BME280;26740;45.944;12.480;2022-07-15T08:20:05;100986.31;;;32.56;45.16
40998;BME280;26740;45.944;12.480;2022-07-15T08:22:34;100986.25;;;32.45;48.38
40998;BME280;26740;45.944;12.480;2022-07-15T08:25:00;100991.41;;;33.83;46.29
40998;BME280;26740;45.944;12.480;2022-07-15T08:27:25;100996.34;;;33.71;43.41
40998;BME280;26740;45.944;12.480;2022-07-15T08:29:51;100989.25;;;33.47;42.76
40998;BME280;26740;45.944;12.480;2022-07-15T08:32:16;100985.22;;;33.70;42.06
40998;BME280;26740;45.944;12.480;2022-07-15T08:34:42;100981.56;;;33.87;41.87
40998;BME280;26740;45.944;12.480;2022-07-15T08:37:08;100979.47;;;34.16;44.39
40998;BME280;26740;45.944;12.480;2022-07-15T08:39:36;100989.19;;;35.94;42.06
40998;BME280;26740;45.944;12.480;2022-07-15T08:42:03;100986.53;;;35.50;39.74
40998;BME280;26740;45.944;12.480;2022-07-15T08:44:30;100986.34;;;35.05;39.86
40998;BME280;26740;45.944;12.480;2022-07-15T08:47:00;100988.56;;;35.57;39.71
40998;BME280;26740;45.944;12.480;2022-07-15T08:49:30;100985.34;;;36.08;37.77
40998;BME280;26740;45.944;12.480;2022-07-15T08:51:57;100985.50;;;35.08;38.88
40998;BME280;26740;45.944;12.480;2022-07-15T08:54:23;100979.09;;;35.57;38.49
40998;BME280;26740;45.944;12.480;2022-07-15T08:56:48;100976.19;;;34.40;41.27
40998;BME280;26740;45.944;12.480;2022-07-15T08:59:14;100986.91;;;34.10;40.17
40998;BME280;26740;45.944;12.480;2022-07-15T09:01:42;100979.84;;;34.65;40.61
40998;BME280;26740;45.944;12.480;2022-07-15T09:04:09;100980.66;;;34.77;42.25
40998;BME280;26740;45.944;12.480;2022-07-15T09:06:42;100980.72;;;35.58;43.06
40998;BME280;26740;45.944;12.480;2022-07-15T09:09:30;100982.38;;;34.52;39.57
40998;BME280;26740;45.944;12.480;2022-07-15T09:14:27;100997.31;;;35.46;37.32
40998;BME280;26740;45.944;12.480;2022-07-15T09:19:57;100994.53;;;35.25;36.00
40998;BME280;26740;45.944;12.480;2022-07-15T09:22:24;100992.59;;;34.89;38.07
40998;BME280;26740;45.944;12.480;2022-07-15T09:25:00;100993.31;;;35.11;37.21
40998;BME280;26740;45.944;12.480;2022-07-15T09:27:28;100992.19;;;35.79;37.35
40998;BME280;26740;45.944;12.480;2022-07-15T09:29:54;100993.69;;;35.95;36.21
40998;BME280;26740;45.944;12.480;2022-07-15T09:32:38;100997.47;;;35.07;35.86
40998;BME280;26740;45.944;12.480;2022-07-15T09:35:22;100994.94;;;35.97;38.91
40998;BME280;26740;45.944;12.480;2022-07-15T09:38:06;100997.97;;;35.79;39.16
40998;BME280;26740;45.944;12.480;2022-07-15T09:40:33;100994.03;;;35.44;37.64
40998;BME280;26740;45.944;12.480;2022-07-15T09:43:04;100994.66;;;35.77;39.82
40998;BME280;26740;45.944;12.480;2022-07-15T09:45:34;100998.56;;;35.42;38.12
40998;BME280;26740;45.944;12.480;2022-07-15T09:48:07;100998.69;;;35.09;37.40
40998;BME280;26740;45.944;12.480;2022-07-15T09:50:34;100995.44;;;34.97;37.49
40998;BME280;26740;45.944;12.480;2022-07-15T09:53:10;100987.31;;;34.70;38.53
40998;BME280;26740;45.944;12.480;2022-07-15T09:55:36;100989.59;;;35.15;37.13
40998;BME280;26740;45.944;12.480;2022-07-15T09:58:05;100990.91;;;34.99;39.99
40998;BME280;26740;45.944;12.480;2022-07-15T10:00:31;100988.50;;;35.68;38.80
40998;BME280;26740;45.944;12.480;2022-07-15T10:02:57;100991.28;;;35.01;37.16
40998;BME280;26740;45.944;12.480;2022-07-15T10:05:23;100985.09;;;35.03;39.11
40998;BME280;26740;45.944;12.480;2022-07-15T10:07:49;100985.63;;;34.58;37.13
40998;BME280;26740;45.944;12.480;2022-07-15T10:10:20;100982.81;;;34.40;40.66
40998;BME280;26740;45.944;12.480;2022-07-15T10:15:33;100981.41;;;35.02;37.81
40998;BME280;26740;45.944;12.480;2022-07-15T10:24:09;100972.94;;;35.55;38.30
40998;BME280;26740;45.944;12.480;2022-07-15T10:29:30;100975.34;;;34.46;40.59
40998;BME280;26740;45.944;12.480;2022-07-15T10:31:58;100976.16;;;34.65;40.19
40998;BME280;26740;45.944;12.480;2022-07-15T10:34:37;100978.47;;;35.13;40.21
40998;BME280;26740;45.944;12.480;2022-07-15T10:37:08;100967.91;;;34.63;39.47
40998;BME280;26740;45.944;12.480;2022-07-15T10:39:56;100975.34;;;34.75;37.83
40998;BME280;26740;45.944;12.480;2022-07-15T10:42:59;100976.81;;;35.23;43.21
40998;BME280;26740;45.944;12.480;2022-07-15T10:45:27;100969.50;;;34.89;35.76
40998;BME280;26740;45.944;12.480;2022-07-15T10:48:29;100974.78;;;35.09;37.50
40998;BME280;26740;45.944;12.480;2022-07-15T10:50:56;100962.94;;;34.78;38.79
40998;BME280;26740;45.944;12.480;2022-07-15T10:53:24;100961.75;;;35.60;41.09
40998;BME280;26740;45.944;12.480;2022-07-15T10:55:52;100965.47;;;34.08;38.32
40998;BME280;26740;45.944;12.480;2022-07-15T10:58:18;100963.78;;;33.56;38.77
40998;BME280;26740;45.944;12.480;2022-07-15T11:00:45;100968.75;;;33.67;38.86
40998;BME280;26740;45.944;12.480;2022-07-15T11:03:17;100971.16;;;33.47;38.16
40998;BME280;26740;45.944;12.480;2022-07-15T11:05:59;100971.63;;;34.64;35.62
40998;BME280;26740;45.944;12.480;2022-07-15T11:13:42;100957.22;;;34.60;37.56
40998;BME280;26740;45.944;12.480;2022-07-15T11:16:11;100963.84;;;34.28;37.47
40998;BME280;26740;45.944;12.480;2022-07-15T11:18:52;100950.69;;;33.91;36.71
40998;BME280;26740;45.944;12.480;2022-07-15T11:21:20;100953.56;;;33.98;38.61
40998;BME280;26740;45.944;12.480;2022-07-15T11:23:49;100957.25;;;34.46;40.30
40998;BME280;26740;45.944;12.480;2022-07-15T11:26:15;100957.03;;;35.18;39.97
40998;BME280;26740;45.944;12.480;2022-07-15T11:28:49;100958.03;;;34.57;36.88
40998;BME280;26740;45.944;12.480;2022-07-15T11:31:16;100948.31;;;35.32;38.47
40998;BME280;26740;45.944;12.480;2022-07-15T11:33:41;100949.19;;;35.88;37.61
40998;BME280;26740;45.944;12.480;2022-07-15T11:36:16;100952.44;;;35.27;37.45
40998;BME280;26740;45.944;12.480;2022-07-15T11:38:42;100949.50;;;35.38;35.13
40998;BME280;26740;45.944;12.480;2022-07-15T11:41:08;100940.66;;;34.93;39.37
40998;BME280;26740;45.944;12.480;2022-07-15T11:44:03;100948.06;;;34.87;39.10
40998;BME280;26740;45.944;12.480;2022-07-15T11:46:48;100945.44;;;35.28;37.19
40998;BME280;26740;45.944;12.480;2022-07-15T11:49:34;100945.25;;;34.72;37.71
40998;BME280;26740;45.944;12.480;2022-07-15T11:52:04;100937.97;;;35.35;35.49
40998;BME280;26740;45.944;12.480;2022-07-15T11:54:31;100939.88;;;34.78;36.70
40998;BME280;26740;45.944;12.480;2022-07-15T11:57:00;100937.78;;;34.86;38.57
40998;BME280;26740;45.944;12.480;2022-07-15T11:59:28;100944.84;;;34.70;34.79
40998;BME280;26740;45.944;12.480;2022-07-15T12:02:07;100942.44;;;34.44;34.64
40998;BME280;26740;45.944;12.480;2022-07-15T12:04:34;100948.13;;;34.69;35.71
40998;BME280;26740;45.944;12.480;2022-07-15T12:07:00;100942.81;;;34.46;35.38
40998;BME280;26740;45.944;12.480;2022-07-15T12:09:37;100939.91;;;34.60;37.45
40998;BME280;26740;45.944;12.480;2022-07-15T12:12:04;100945.38;;;35.39;34.54
40998;BME280;26740;45.944;12.480;2022-07-15T12:14:30;100928.50;;;35.34;37.89
40998;BME280;26740;45.944;12.480;2022-07-15T12:16:57;100938.75;;;35.98;36.65
40998;BME280;26740;45.944;12.480;2022-07-15T12:19:33;100929.53;;;36.56;33.42
40998;BME280;26740;45.944;12.480;2022-07-15T12:22:06;100928.63;;;35.79;35.21
40998;BME280;26740;45.944;12.480;2022-07-15T12:24:40;100924.19;;;35.60;34.21
40998;BME280;26740;45.944;12.480;2022-07-15T12:27:07;100928.69;;;35.72;31.94
40998;BME280;26740;45.944;12.480;2022-07-15T12:29:33;100911.22;;;35.86;34.66
40998;BME280;26740;45.944;12.480;2022-07-15T12:32:10;100923.34;;;35.63;32.64
40998;BME280;26740;45.944;12.480;2022-07-15T12:34:53;100919.91;;;35.23;30.64
40998;BME280;26740;45.944;12.480;2022-07-15T12:37:27;100916.28;;;35.72;33.22
40998;BME280;26740;45.944;12.480;2022-07-15T12:40:13;100912.06;;;35.83;32.95
40998;BME280;26740;45.944;12.480;2022-07-15T12:42:48;100908.78;;;35.81;36.87
40998;BME280;26740;45.944;12.480;2022-07-15T12:45:24;100909.06;;;35.38;33.16
40998;BME280;26740;45.944;12.480;2022-07-15T12:48:08;100910.56;;;35.61;34.22
40998;BME280;26740;45.944;12.480;2022-07-15T12:53:16;100913.03;;;35.62;31.22
40998;BME280;26740;45.944;12.480;2022-07-15T12:55:44;100906.91;;;36.05;33.27
40998;BME280;26740;45.944;12.480;2022-07-15T12:58:16;100909.56;;;36.69;29.30
40998;BME280;26740;45.944;12.480;2022-07-15T13:00:43;100902.28;;;36.53;34.98
40998;BME280;26740;45.944;12.480;2022-07-15T13:03:12;100897.97;;;35.89;34.81
40998;BME280;26740;45.944;12.480;2022-07-15T13:05:44;100898.88;;;35.79;32.09